sensor_id;sensor_type;location;lat;lon;timestamp;temperature;humidity
11818;DHT22;5966;52.402;5.322;2023-11-21T00:11:02;9.00;99.90
11818;DHT22;5966;52.402;5.322;2023-11-21T00:13:50;9.10;99.90
11818;DHT22;5966;52.402;5.322;2023-11-21T00:16:21;9.10;99.90
11818;DHT22;5966;52.402;5.322;2023-11-21T00:19:59;9.10;99.90
11818;DHT22;5966;52.402;5.322;2023-11-21T00:23:10;9.20;99.90
11818;DHT22;5966;52.402;5.322;2023-11-21T00:37:13;9.30;99.90
11818;DHT22;5966;52.402;5.322;2023-11-21T00:39:44;9.30;99.90
11818;DHT22;5966;52.402;5.322;2023-11-21T00:42:58;9.30;99.90
11818;DHT22;5966;52.402;5.322;2023-11-21T00:57:20;9.40;99.90
11818;DHT22;5966;52.402;5.322;2023-11-21T01:00:13;9.40;99.90
11818;DHT22;5966;52.402;5.322;2023-11-21T01:03:09;9.40;99.90
11818;DHT22;5966;52.402;5.322;2023-11-21T01:06:06;9.40;99.90
11818;DHT22;5966;52.402;5.322;2023-11-21T01:24:44;9.40;99.90
11818;DHT22;5966;52.402;5.322;2023-11-21T01:27:13;9.40;99.90
11818;DHT22;5966;52.402;5.322;2023-11-21T01:37:55;9.40;99.90
11818;DHT22;5966;52.402;5.322;2023-11-21T03:29:41;9.60;99.90
11818;DHT22;5966;52.402;5.322;2023-11-21T03:32:10;9.50;99.90
11818;DHT22;5966;52.402;5.322;2023-11-21T03:34:54;9.60;99.90
11818;DHT22;5966;52.402;5.322;2023-11-21T03:37:50;9.60;99.90
11818;DHT22;5966;52.402;5.322;2023-11-21T03:40:23;9.60;99.90
11818;DHT22;5966;52.402;5.322;2023-11-21T03:43:21;9.70;99.90
11818;DHT22;5966;52.402;5.322;2023-11-21T03:45:54;9.70;99.90
11818;DHT22;5966;52.402;5.322;2023-11-21T03:48:27;9.70;99.90
11818;DHT22;5966;52.402;5.322;2023-11-21T03:50:59;9.80;99.90
11818;DHT22;5966;52.402;5.322;2023-11-21T03:53:30;9.80;99.90
11818;DHT22;5966;52.402;5.322;2023-11-21T03:59:52;9.80;99.90
11818;DHT22;5966;52.402;5.322;2023-11-21T04:06:34;9.80;99.90
11818;DHT22;5966;52.402;5.322;2023-11-21T04:10:11;9.80;99.90
11818;DHT22;5966;52.402;5.322;2023-11-21T04:13:13;9.90;99.90
11818;DHT22;5966;52.402;5.322;2023-11-21T04:16:06;9.90;99.90
11818;DHT22;5966;52.402;5.322;2023-11-21T04:18:43;9.90;99.90
11818;DHT22;5966;52.402;5.322;2023-11-21T04:22:03;9.90;99.90
11818;DHT22;5966;52.402;5.322;2023-11-21T04:24:36;9.90;99.90
11818;DHT22;5966;52.402;5.322;2023-11-21T04:27:05;9.90;99.90
11818;DHT22;5966;52.402;5.322;2023-11-21T04:29:35;9.90;99.90
11818;DHT22;5966;52.402;5.322;2023-11-21T04:32:04;10.00;99.90
11818;DHT22;5966;52.402;5.322;2023-11-21T04:34:36;10.00;99.90
11818;DHT22;5966;52.402;5.322;2023-11-21T04:37:10;10.00;99.90
11818;DHT22;5966;52.402;5.322;2023-11-21T04:39:41;10.00;99.90
11818;DHT22;5966;52.402;5.322;2023-11-21T04:42:13;10.00;99.90
11818;DHT22;5966;52.402;5.322;2023-11-21T04:45:06;10.00;99.90
11818;DHT22;5966;52.402;5.322;2023-11-21T04:52:00;10.10;99.90
11818;DHT22;5966;52.402;5.322;2023-11-21T04:54:31;10.10;99.90
11818;DHT22;5966;52.402;5.322;2023-11-21T04:56:59;10.10;99.90
11818;DHT22;5966;52.402;5.322;2023-11-21T04:59:27;10.10;99.90
11818;DHT22;5966;52.402;5.322;2023-11-21T05:01:56;10.10;99.90
11818;DHT22;5966;52.402;5.322;2023-11-21T05:04:24;10.20;99.90
11818;DHT22;5966;52.402;5.322;2023-11-21T05:06:52;10.20;99.90
11818;DHT22;5966;52.402;5.322;2023-11-21T05:09:21;10.20;99.90
11818;DHT22;5966;52.402;5.322;2023-11-21T05:11:50;10.20;99.90
11818;DHT22;5966;52.402;5.322;2023-11-21T05:14:20;10.20;99.90
11818;DHT22;5966;52.402;5.322;2023-11-21T05:16:48;10.20;99.90
11818;DHT22;5966;52.402;5.322;2023-11-21T05:19:17;10.20;99.90
11818;DHT22;5966;52.402;5.322;2023-11-21T05:21:46;10.30;99.90
11818;DHT22;5966;52.402;5.322;2023-11-21T05:24:14;10.20;99.90
11818;DHT22;5966;52.402;5.322;2023-11-21T05:26:42;10.30;99.90
11818;DHT22;5966;52.402;5.322;2023-11-21T05:29:12;10.30;99.90
11818;DHT22;5966;52.402;5.322;2023-11-21T05:31:40;10.30;99.90
11818;DHT22;5966;52.402;5.322;2023-11-21T05:34:08;10.30;99.90
11818;DHT22;5966;52.402;5.322;2023-11-21T05:36:36;10.40;99.90
11818;DHT22;5966;52.402;5.322;2023-11-21T05:39:05;10.40;99.90
11818;DHT22;5966;52.402;5.322;2023-11-21T05:41:33;10.30;99.90
11818;DHT22;5966;52.402;5.322;2023-11-21T05:44:01;10.30;99.90
11818;DHT22;5966;52.402;5.322;2023-11-21T05:46:31;10.30;99.90
11818;DHT22;5966;52.402;5.322;2023-11-21T05:48:59;10.40;99.90
11818;DHT22;5966;52.402;5.322;2023-11-21T05:51:27;10.40;99.90
11818;DHT22;5966;52.402;5.322;2023-11-21T05:53:55;10.40;99.90
11818;DHT22;5966;52.402;5.322;2023-11-21T05:56:23;10.40;99.90
11818;DHT22;5966;52.402;5.322;2023-11-21T05:58:52;10.40;99.90
11818;DHT22;5966;52.402;5.322;2023-11-21T06:01:20;10.40;99.90
11818;DHT22;5966;52.402;5.322;2023-11-21T06:03:50;10.30;99.90
11818;DHT22;5966;52.402;5.322;2023-11-21T06:06:19;10.40;99.90
11818;DHT22;5966;52.402;5.322;2023-11-21T06:08:49;10.30;99.90
11818;DHT22;5966;52.402;5.322;2023-11-21T06:11:17;10.30;99.90
11818;DHT22;5966;52.402;5.322;2023-11-21T06:13:45;10.30;99.90
11818;DHT22;5966;52.402;5.322;2023-11-21T06:16:14;10.40;99.90
11818;DHT22;5966;52.402;5.322;2023-11-21T06:18:44;10.40;99.90
11818;DHT22;5966;52.402;5.322;2023-11-21T06:21:14;10.30;99.90
11818;DHT22;5966;52.402;5.322;2023-11-21T06:23:43;10.30;99.90
11818;DHT22;5966;52.402;5.322;2023-11-21T06:26:11;10.30;99.90
11818;DHT22;5966;52.402;5.322;2023-11-21T06:28:39;10.30;99.90
11818;DHT22;5966;52.402;5.322;2023-11-21T06:31:08;10.30;99.90
11818;DHT22;5966;52.402;5.322;2023-11-21T06:33:37;10.30;99.90
11818;DHT22;5966;52.402;5.322;2023-11-21T06:36:06;10.30;99.90
11818;DHT22;5966;52.402;5.322;2023-11-21T06:38:36;10.30;99.90
11818;DHT22;5966;52.402;5.322;2023-11-21T06:41:05;10.30;99.90
11818;DHT22;5966;52.402;5.322;2023-11-21T06:43:34;10.20;99.90
11818;DHT22;5966;52.402;5.322;2023-11-21T06:46:03;10.20;99.90
11818;DHT22;5966;52.402;5.322;2023-11-21T06:48:31;10.20;99.90
11818;DHT22;5966;52.402;5.322;2023-11-21T06:50:59;10.10;99.90
11818;DHT22;5966;52.402;5.322;2023-11-21T06:53:28;10.20;99.90
11818;DHT22;5966;52.402;5.322;2023-11-21T06:55:57;10.20;99.90
11818;DHT22;5966;52.402;5.322;2023-11-21T06:58:25;10.20;99.90
11818;DHT22;5966;52.402;5.322;2023-11-21T07:00:54;10.10;99.90
11818;DHT22;5966;52.402;5.322;2023-11-21T07:03:22;10.10;99.90
11818;DHT22;5966;52.402;5.322;2023-11-21T07:05:51;10.10;99.90
11818;DHT22;5966;52.402;5.322;2023-11-21T07:08:19;10.10;99.90
11818;DHT22;5966;52.402;5.322;2023-11-21T07:10:47;10.10;99.90
11818;DHT22;5966;52.402;5.322;2023-11-21T07:13:17;10.10;99.90
11818;DHT22;5966;52.402;5.322;2023-11-21T07:15:45;10.10;99.90
11818;DHT22;5966;52.402;5.322;2023-11-21T07:18:14;10.10;99.90
11818;DHT22;5966;52.402;5.322;2023-11-21T07:20:42;10.10;99.90
11818;DHT22;5966;52.402;5.322;2023-11-21T07:23:10;10.10;99.90
11818;DHT22;5966;52.402;5.322;2023-11-21T07:25:38;10.00;99.90
11818;DHT22;5966;52.402;5.322;2023-11-21T07:28:08;10.00;99.90
11818;DHT22;5966;52.402;5.322;2023-11-21T07:30:37;10.10;99.90
11818;DHT22;5966;52.402;5.322;2023-11-21T07:33:05;10.00;99.90
11818;DHT22;5966;52.402;5.322;2023-11-21T07:35:34;10.10;99.90
11818;DHT22;5966;52.402;5.322;2023-11-21T07:38:02;10.10;99.90
11818;DHT22;5966;52.402;5.322;2023-11-21T07:40:31;10.10;99.90
11818;DHT22;5966;52.402;5.322;2023-11-21T07:42:59;10.10;99.90
11818;DHT22;5966;52.402;5.322;2023-11-21T07:45:27;10.10;99.90
11818;DHT22;5966;52.402;5.322;2023-11-21T07:47:57;10.00;99.90
11818;DHT22;5966;52.402;5.322;2023-11-21T07:50:25;10.10;99.90
11818;DHT22;5966;52.402;5.322;2023-11-21T07:52:54;10.00;99.90
11818;DHT22;5966;52.402;5.322;2023-11-21T07:55:22;10.00;99.90
11818;DHT22;5966;52.402;5.322;2023-11-21T07:57:51;10.00;99.90
11818;DHT22;5966;52.402;5.322;2023-11-21T08:00:20;10.00;99.90
11818;DHT22;5966;52.402;5.322;2023-11-21T08:02:48;10.00;99.90
11818;DHT22;5966;52.402;5.322;2023-11-21T08:05:19;10.00;99.90
11818;DHT22;5966;52.402;5.322;2023-11-21T08:07:58;10.00;99.90
11818;DHT22;5966;52.402;5.322;2023-11-21T08:10:26;10.00;99.90
11818;DHT22;5966;52.402;5.322;2023-11-21T08:12:54;10.00;99.90
11818;DHT22;5966;52.402;5.322;2023-11-21T08:15:22;10.10;99.90
11818;DHT22;5966;52.402;5.322;2023-11-21T08:17:50;10.10;99.90
11818;DHT22;5966;52.402;5.322;2023-11-21T08:20:20;10.10;99.90
11818;DHT22;5966;52.402;5.322;2023-11-21T08:22:49;10.10;99.90
11818;DHT22;5966;52.402;5.322;2023-11-21T08:25:19;10.10;99.90
11818;DHT22;5966;52.402;5.322;2023-11-21T08:27:47;10.10;99.90
11818;DHT22;5966;52.402;5.322;2023-11-21T08:30:15;10.10;99.90
11818;DHT22;5966;52.402;5.322;2023-11-21T08:32:46;10.10;99.90
11818;DHT22;5966;52.402;5.322;2023-11-21T08:35:14;10.10;99.90
11818;DHT22;5966;52.402;5.322;2023-11-21T08:37:45;10.10;99.90
11818;DHT22;5966;52.402;5.322;2023-11-21T08:40:13;10.10;99.90
11818;DHT22;5966;52.402;5.322;2023-11-21T08:42:44;10.10;99.90
11818;DHT22;5966;52.402;5.322;2023-11-21T08:45:14;10.10;99.90
11818;DHT22;5966;52.402;5.322;2023-11-21T08:47:44;10.10;99.90
11818;DHT22;5966;52.402;5.322;2023-11-21T08:50:13;10.10;99.90
11818;DHT22;5966;52.402;5.322;2023-11-21T08:52:42;10.10;99.90
11818;DHT22;5966;52.402;5.322;2023-11-21T08:55:15;10.10;99.90
11818;DHT22;5966;52.402;5.322;2023-11-21T08:57:44;10.10;99.90
11818;DHT22;5966;52.402;5.322;2023-11-21T09:00:14;10.00;99.90
11818;DHT22;5966;52.402;5.322;2023-11-21T09:02:44;10.00;99.90
11818;DHT22;5966;52.402;5.322;2023-11-21T09:05:14;10.00;99.90
11818;DHT22;5966;52.402;5.322;2023-11-21T09:07:43;10.00;99.90
11818;DHT22;5966;52.402;5.322;2023-11-21T09:10:14;10.00;99.90
11818;DHT22;5966;52.402;5.322;2023-11-21T09:12:43;10.00;99.90
11818;DHT22;5966;52.402;5.322;2023-11-21T09:15:13;10.00;99.90
11818;DHT22;5966;52.402;5.322;2023-11-21T09:17:41;10.00;99.90
11818;DHT22;5966;52.402;5.322;2023-11-21T09:20:12;9.90;99.90
11818;DHT22;5966;52.402;5.322;2023-11-21T09:22:42;9.90;99.90
11818;DHT22;5966;52.402;5.322;2023-11-21T09:25:11;9.90;99.90
11818;DHT22;5966;52.402;5.322;2023-11-21T09:27:41;9.90;99.90
11818;DHT22;5966;52.402;5.322;2023-11-21T09:30:10;10.00;99.90
11818;DHT22;5966;52.402;5.322;2023-11-21T09:32:41;10.00;99.90
11818;DHT22;5966;52.402;5.322;2023-11-21T09:35:12;10.00;99.90
11818;DHT22;5966;52.402;5.322;2023-11-21T09:37:43;10.00;99.90
11818;DHT22;5966;52.402;5.322;2023-11-21T09:40:20;9.90;99.90
11818;DHT22;5966;52.402;5.322;2023-11-21T09:42:55;10.00;99.90
11818;DHT22;5966;52.402;5.322;2023-11-21T09:45:26;10.00;99.90
11818;DHT22;5966;52.402;5.322;2023-11-21T09:47:56;10.00;99.90
11818;DHT22;5966;52.402;5.322;2023-11-21T09:50:25;10.00;99.90
11818;DHT22;5966;52.402;5.322;2023-11-21T09:52:57;10.00;99.90
11818;DHT22;5966;52.402;5.322;2023-11-21T09:55:28;10.00;99.90
11818;DHT22;5966;52.402;5.322;2023-11-21T09:58:00;10.00;99.90
11818;DHT22;5966;52.402;5.322;2023-11-21T10:00:29;10.00;99.90
11818;DHT22;5966;52.402;5.322;2023-11-21T10:03:00;10.00;99.90
11818;DHT22;5966;52.402;5.322;2023-11-21T10:05:30;10.00;99.90
11818;DHT22;5966;52.402;5.322;2023-11-21T10:08:01;10.00;99.90
11818;DHT22;5966;52.402;5.322;2023-11-21T10:10:32;10.00;99.90
11818;DHT22;5966;52.402;5.322;2023-11-21T10:13:04;10.00;99.90
11818;DHT22;5966;52.402;5.322;2023-11-21T10:15:34;10.00;99.90
11818;DHT22;5966;52.402;5.322;2023-11-21T10:18:04;10.00;99.90
11818;DHT22;5966;52.402;5.322;2023-11-21T10:20:33;10.10;99.90
11818;DHT22;5966;52.402;5.322;2023-11-21T10:23:04;10.10;99.90
11818;DHT22;5966;52.402;5.322;2023-11-21T10:25:34;10.10;99.90
11818;DHT22;5966;52.402;5.322;2023-11-21T10:28:05;10.10;99.90
11818;DHT22;5966;52.402;5.322;2023-11-21T10:30:36;10.10;99.90
11818;DHT22;5966;52.402;5.322;2023-11-21T10:33:06;10.10;99.90
11818;DHT22;5966;52.402;5.322;2023-11-21T10:35:42;10.00;99.90
11818;DHT22;5966;52.402;5.322;2023-11-21T10:38:14;10.00;99.90
11818;DHT22;5966;52.402;5.322;2023-11-21T10:40:44;10.00;99.90
11818;DHT22;5966;52.402;5.322;2023-11-21T10:43:16;10.00;99.90
11818;DHT22;5966;52.402;5.322;2023-11-21T10:45:45;10.00;99.90
11818;DHT22;5966;52.402;5.322;2023-11-21T10:48:15;10.00;99.90
11818;DHT22;5966;52.402;5.322;2023-11-21T10:50:45;10.00;99.90
11818;DHT22;5966;52.402;5.322;2023-11-21T10:53:14;10.10;99.90
11818;DHT22;5966;52.402;5.322;2023-11-21T10:55:44;10.10;99.90
11818;DHT22;5966;52.402;5.322;2023-11-21T10:58:16;10.10;99.90
11818;DHT22;5966;52.402;5.322;2023-11-21T11:00:45;10.20;99.90
11818;DHT22;5966;52.402;5.322;2023-11-21T11:03:15;10.20;99.90
11818;DHT22;5966;52.402;5.322;2023-11-21T11:05:45;10.20;99.90
11818;DHT22;5966;52.402;5.322;2023-11-21T11:08:21;10.20;99.90
11818;DHT22;5966;52.402;5.322;2023-11-21T11:10:54;10.20;99.90
11818;DHT22;5966;52.402;5.322;2023-11-21T11:13:24;10.30;99.90
11818;DHT22;5966;52.402;5.322;2023-11-21T11:15:58;10.30;99.90
11818;DHT22;5966;52.402;5.322;2023-11-21T11:18:29;10.30;99.90
11818;DHT22;5966;52.402;5.322;2023-11-21T11:21:05;10.30;99.90
11818;DHT22;5966;52.402;5.322;2023-11-21T11:23:50;10.30;99.90
11818;DHT22;5966;52.402;5.322;2023-11-21T11:26:29;10.30;99.90
11818;DHT22;5966;52.402;5.322;2023-11-21T11:29:10;10.30;99.90
11818;DHT22;5966;52.402;5.322;2023-11-21T11:31:55;10.30;99.90
11818;DHT22;5966;52.402;5.322;2023-11-21T11:34:29;10.20;99.90
11818;DHT22;5966;52.402;5.322;2023-11-21T11:37:02;10.20;99.90
11818;DHT22;5966;52.402;5.322;2023-11-21T11:39:37;10.00;99.90
11818;DHT22;5966;52.402;5.322;2023-11-21T11:42:07;9.90;99.90
11818;DHT22;5966;52.402;5.322;2023-11-21T11:44:53;9.80;99.90
11818;DHT22;5966;52.402;5.322;2023-11-21T11:47:25;9.80;99.90
11818;DHT22;5966;52.402;5.322;2023-11-21T11:50:01;9.80;99.90
11818;DHT22;5966;52.402;5.322;2023-11-21T11:52:38;9.70;99.90
11818;DHT22;5966;52.402;5.322;2023-11-21T11:55:09;9.70;99.90
11818;DHT22;5966;52.402;5.322;2023-11-21T11:57:41;9.70;99.90
11818;DHT22;5966;52.402;5.322;2023-11-21T12:00:16;9.70;99.90
11818;DHT22;5966;52.402;5.322;2023-11-21T12:02:47;9.70;99.90
11818;DHT22;5966;52.402;5.322;2023-11-21T12:05:18;9.70;99.90
11818;DHT22;5966;52.402;5.322;2023-11-21T12:07:49;9.70;99.90
11818;DHT22;5966;52.402;5.322;2023-11-21T12:10:21;9.60;99.90
11818;DHT22;5966;52.402;5.322;2023-11-21T12:12:52;9.70;99.90
11818;DHT22;5966;52.402;5.322;2023-11-21T12:15:23;9.60;99.90
11818;DHT22;5966;52.402;5.322;2023-11-21T12:17:52;9.60;99.90
11818;DHT22;5966;52.402;5.322;2023-11-21T12:20:22;9.60;99.90
11818;DHT22;5966;52.402;5.322;2023-11-21T12:22:52;9.60;99.90
11818;DHT22;5966;52.402;5.322;2023-11-21T12:25:23;9.60;99.90
11818;DHT22;5966;52.402;5.322;2023-11-21T12:27:56;9.50;99.90
11818;DHT22;5966;52.402;5.322;2023-11-21T12:30:28;9.50;99.90
11818;DHT22;5966;52.402;5.322;2023-11-21T12:33:00;9.50;99.90
11818;DHT22;5966;52.402;5.322;2023-11-21T12:35:32;9.50;99.90
11818;DHT22;5966;52.402;5.322;2023-11-21T12:38:02;9.60;99.90
11818;DHT22;5966;52.402;5.322;2023-11-21T12:40:32;9.60;99.90
11818;DHT22;5966;52.402;5.322;2023-11-21T12:43:01;9.60;99.90
11818;DHT22;5966;52.402;5.322;2023-11-21T12:45:33;9.60;99.90
11818;DHT22;5966;52.402;5.322;2023-11-21T12:48:03;9.70;99.90
11818;DHT22;5966;52.402;5.322;2023-11-21T12:50:36;9.70;99.90
11818;DHT22;5966;52.402;5.322;2023-11-21T12:53:06;9.70;99.90
11818;DHT22;5966;52.402;5.322;2023-11-21T12:55:37;9.80;99.90
11818;DHT22;5966;52.402;5.322;2023-11-21T12:58:08;9.80;99.90
11818;DHT22;5966;52.402;5.322;2023-11-21T13:00:42;9.80;99.90
11818;DHT22;5966;52.402;5.322;2023-11-21T13:03:13;9.80;99.90
11818;DHT22;5966;52.402;5.322;2023-11-21T13:05:47;9.70;99.90
11818;DHT22;5966;52.402;5.322;2023-11-21T13:08:20;9.70;99.90
11818;DHT22;5966;52.402;5.322;2023-11-21T13:10:54;9.60;99.90
11818;DHT22;5966;52.402;5.322;2023-11-21T13:13:25;9.60;99.90
11818;DHT22;5966;52.402;5.322;2023-11-21T13:16:00;9.60;99.90
11818;DHT22;5966;52.402;5.322;2023-11-21T13:18:31;9.60;99.90
11818;DHT22;5966;52.402;5.322;2023-11-21T13:21:02;9.60;99.90
11818;DHT22;5966;52.402;5.322;2023-11-21T13:23:34;9.60;99.90
11818;DHT22;5966;52.402;5.322;2023-11-21T13:26:03;9.60;99.90
11818;DHT22;5966;52.402;5.322;2023-11-21T13:28:34;9.60;99.90
11818;DHT22;5966;52.402;5.322;2023-11-21T13:31:06;9.50;99.90
11818;DHT22;5966;52.402;5.322;2023-11-21T13:33:49;9.50;99.90
11818;DHT22;5966;52.402;5.322;2023-11-21T13:36:22;9.50;99.90
11818;DHT22;5966;52.402;5.322;2023-11-21T13:38:53;9.40;99.90
11818;DHT22;5966;52.402;5.322;2023-11-21T13:41:21;9.50;99.90
11818;DHT22;5966;52.402;5.322;2023-11-21T13:43:55;9.50;99.90
11818;DHT22;5966;52.402;5.322;2023-11-21T13:46:32;9.40;99.90
11818;DHT22;5966;52.402;5.322;2023-11-21T13:49:04;9.40;99.90
11818;DHT22;5966;52.402;5.322;2023-11-21T13:51:37;9.40;99.90
11818;DHT22;5966;52.402;5.322;2023-11-21T13:54:10;9.40;99.90
11818;DHT22;5966;52.402;5.322;2023-11-21T13:56:38;9.30;99.90
11818;DHT22;5966;52.402;5.322;2023-11-21T13:59:08;9.40;99.90
11818;DHT22;5966;52.402;5.322;2023-11-21T14:01:46;9.40;99.90
11818;DHT22;5966;52.402;5.322;2023-11-21T14:04:22;9.40;99.90
11818;DHT22;5966;52.402;5.322;2023-11-21T14:07:05;9.40;99.90
11818;DHT22;5966;52.402;5.322;2023-11-21T14:09:49;9.40;99.90
11818;DHT22;5966;52.402;5.322;2023-11-21T14:12:19;9.40;99.90
11818;DHT22;5966;52.402;5.322;2023-11-21T14:14:48;9.30;99.90
11818;DHT22;5966;52.402;5.322;2023-11-21T14:17:18;9.30;99.90
11818;DHT22;5966;52.402;5.322;2023-11-21T14:19:49;9.30;99.90
11818;DHT22;5966;52.402;5.322;2023-11-21T14:22:18;9.30;99.90
11818;DHT22;5966;52.402;5.322;2023-11-21T14:24:47;9.30;99.90
11818;DHT22;5966;52.402;5.322;2023-11-21T14:27:17;9.30;99.90
11818;DHT22;5966;52.402;5.322;2023-11-21T14:29:45;9.20;99.90
11818;DHT22;5966;52.402;5.322;2023-11-21T14:32:14;9.10;99.90
11818;DHT22;5966;52.402;5.322;2023-11-21T14:34:45;9.10;99.90
11818;DHT22;5966;52.402;5.322;2023-11-21T14:37:14;9.10;99.90
11818;DHT22;5966;52.402;5.322;2023-11-21T14:39:43;9.10;99.90
11818;DHT22;5966;52.402;5.322;2023-11-21T14:42:14;9.00;99.90
11818;DHT22;5966;52.402;5.322;2023-11-21T14:44:48;8.90;99.90
11818;DHT22;5966;52.402;5.322;2023-11-21T14:47:16;8.90;99.90
11818;DHT22;5966;52.402;5.322;2023-11-21T14:49:53;8.90;99.90
11818;DHT22;5966;52.402;5.322;2023-11-21T14:52:24;8.80;99.90
11818;DHT22;5966;52.402;5.322;2023-11-21T14:55:01;8.90;99.90
11818;DHT22;5966;52.402;5.322;2023-11-21T14:57:43;8.90;99.90
11818;DHT22;5966;52.402;5.322;2023-11-21T15:00:17;8.90;99.90
11818;DHT22;5966;52.402;5.322;2023-11-21T15:03:05;8.90;99.90
11818;DHT22;5966;52.402;5.322;2023-11-21T15:05:35;8.90;99.90
11818;DHT22;5966;52.402;5.322;2023-11-21T15:08:03;8.90;99.90
11818;DHT22;5966;52.402;5.322;2023-11-21T15:10:47;9.00;99.90
11818;DHT22;5966;52.402;5.322;2023-11-21T15:13:20;8.90;99.90
11818;DHT22;5966;52.402;5.322;2023-11-21T15:15:51;8.90;99.90
11818;DHT22;5966;52.402;5.322;2023-11-21T15:18:21;8.80;99.90
11818;DHT22;5966;52.402;5.322;2023-11-21T15:20:53;8.80;99.90
11818;DHT22;5966;52.402;5.322;2023-11-21T15:23:22;8.80;99.90
11818;DHT22;5966;52.402;5.322;2023-11-21T15:25:50;8.70;99.90
11818;DHT22;5966;52.402;5.322;2023-11-21T15:28:20;8.60;99.90
11818;DHT22;5966;52.402;5.322;2023-11-21T15:30:48;8.60;99.90
11818;DHT22;5966;52.402;5.322;2023-11-21T15:33:18;8.50;99.90
11818;DHT22;5966;52.402;5.322;2023-11-21T15:35:48;8.50;99.90
11818;DHT22;5966;52.402;5.322;2023-11-21T15:38:20;8.50;99.90
11818;DHT22;5966;52.402;5.322;2023-11-21T15:40:48;8.50;99.90
11818;DHT22;5966;52.402;5.322;2023-11-21T15:43:17;8.50;99.90
11818;DHT22;5966;52.402;5.322;2023-11-21T15:45:48;8.60;99.90
11818;DHT22;5966;52.402;5.322;2023-11-21T15:48:18;8.60;99.90
11818;DHT22;5966;52.402;5.322;2023-11-21T15:50:47;8.60;99.90
11818;DHT22;5966;52.402;5.322;2023-11-21T15:53:21;8.60;99.90
11818;DHT22;5966;52.402;5.322;2023-11-21T15:55:50;8.50;99.90
11818;DHT22;5966;52.402;5.322;2023-11-21T15:58:19;8.60;99.90
11818;DHT22;5966;52.402;5.322;2023-11-21T16:00:48;8.50;99.90
11818;DHT22;5966;52.402;5.322;2023-11-21T16:03:16;8.50;99.90
11818;DHT22;5966;52.402;5.322;2023-11-21T16:05:45;8.50;99.90
11818;DHT22;5966;52.402;5.322;2023-11-21T16:08:13;8.50;99.90
11818;DHT22;5966;52.402;5.322;2023-11-21T16:10:43;8.50;99.90
11818;DHT22;5966;52.402;5.322;2023-11-21T16:13:12;8.50;99.90
11818;DHT22;5966;52.402;5.322;2023-11-21T16:15:42;8.40;99.90
11818;DHT22;5966;52.402;5.322;2023-11-21T16:18:11;8.40;99.90
11818;DHT22;5966;52.402;5.322;2023-11-21T16:20:39;8.40;99.90
11818;DHT22;5966;52.402;5.322;2023-11-21T16:23:08;8.30;99.90
11818;DHT22;5966;52.402;5.322;2023-11-21T16:25:36;8.20;99.90
11818;DHT22;5966;52.402;5.322;2023-11-21T16:28:06;8.20;99.90
11818;DHT22;5966;52.402;5.322;2023-11-21T16:30:35;8.10;99.90
11818;DHT22;5966;52.402;5.322;2023-11-21T16:33:04;8.10;99.90
11818;DHT22;5966;52.402;5.322;2023-11-21T16:35:32;8.00;99.90
11818;DHT22;5966;52.402;5.322;2023-11-21T16:38:00;8.00;99.90
11818;DHT22;5966;52.402;5.322;2023-11-21T16:40:28;8.00;99.90
11818;DHT22;5966;52.402;5.322;2023-11-21T16:42:56;7.90;99.90
11818;DHT22;5966;52.402;5.322;2023-11-21T16:45:26;7.90;99.90
11818;DHT22;5966;52.402;5.322;2023-11-21T16:47:54;7.80;99.90
11818;DHT22;5966;52.402;5.322;2023-11-21T16:50:23;7.80;99.90
11818;DHT22;5966;52.402;5.322;2023-11-21T16:52:52;7.80;99.90
11818;DHT22;5966;52.402;5.322;2023-11-21T16:55:20;7.70;99.90
11818;DHT22;5966;52.402;5.322;2023-11-21T16:57:50;7.70;99.90
11818;DHT22;5966;52.402;5.322;2023-11-21T17:00:19;7.60;99.90
11818;DHT22;5966;52.402;5.322;2023-11-21T17:02:51;7.60;99.90
11818;DHT22;5966;52.402;5.322;2023-11-21T17:05:19;7.60;99.90
11818;DHT22;5966;52.402;5.322;2023-11-21T17:07:48;7.60;99.90
11818;DHT22;5966;52.402;5.322;2023-11-21T17:10:17;7.60;99.90
11818;DHT22;5966;52.402;5.322;2023-11-21T17:12:47;7.60;99.90
11818;DHT22;5966;52.402;5.322;2023-11-21T17:15:16;7.60;99.90
11818;DHT22;5966;52.402;5.322;2023-11-21T17:17:44;7.50;99.90
11818;DHT22;5966;52.402;5.322;2023-11-21T17:20:14;7.50;99.90
11818;DHT22;5966;52.402;5.322;2023-11-21T17:22:43;7.50;99.90
11818;DHT22;5966;52.402;5.322;2023-11-21T17:25:11;7.50;99.90
11818;DHT22;5966;52.402;5.322;2023-11-21T17:27:42;7.50;99.90
11818;DHT22;5966;52.402;5.322;2023-11-21T17:30:11;7.40;99.90
11818;DHT22;5966;52.402;5.322;2023-11-21T17:32:39;7.40;99.90
11818;DHT22;5966;52.402;5.322;2023-11-21T17:35:09;7.40;99.90
11818;DHT22;5966;52.402;5.322;2023-11-21T17:37:39;7.40;99.90
11818;DHT22;5966;52.402;5.322;2023-11-21T17:40:08;7.30;99.90
11818;DHT22;5966;52.402;5.322;2023-11-21T17:42:37;7.40;99.90
11818;DHT22;5966;52.402;5.322;2023-11-21T17:45:07;7.40;99.90
11818;DHT22;5966;52.402;5.322;2023-11-21T17:47:36;7.40;99.90
11818;DHT22;5966;52.402;5.322;2023-11-21T17:50:05;7.40;99.90
11818;DHT22;5966;52.402;5.322;2023-11-21T17:52:33;7.30;99.90
11818;DHT22;5966;52.402;5.322;2023-11-21T17:55:04;7.30;99.90
11818;DHT22;5966;52.402;5.322;2023-11-21T17:57:32;7.30;99.90
11818;DHT22;5966;52.402;5.322;2023-11-21T18:00:02;7.30;99.90
11818;DHT22;5966;52.402;5.322;2023-11-21T18:02:32;7.20;99.90
11818;DHT22;5966;52.402;5.322;2023-11-21T18:05:04;7.20;99.90
11818;DHT22;5966;52.402;5.322;2023-11-21T18:07:37;7.20;99.90
11818;DHT22;5966;52.402;5.322;2023-11-21T18:10:09;7.20;99.90
11818;DHT22;5966;52.402;5.322;2023-11-21T18:12:37;7.20;99.90
11818;DHT22;5966;52.402;5.322;2023-11-21T18:15:06;7.20;99.90
11818;DHT22;5966;52.402;5.322;2023-11-21T18:17:35;7.10;99.90
11818;DHT22;5966;52.402;5.322;2023-11-21T18:20:04;7.10;99.90
11818;DHT22;5966;52.402;5.322;2023-11-21T18:22:33;7.10;99.90
11818;DHT22;5966;52.402;5.322;2023-11-21T18:25:01;7.10;99.90
11818;DHT22;5966;52.402;5.322;2023-11-21T18:27:31;7.00;99.90
11818;DHT22;5966;52.402;5.322;2023-11-21T18:29:59;7.00;99.90
11818;DHT22;5966;52.402;5.322;2023-11-21T18:32:29;7.00;99.90
11818;DHT22;5966;52.402;5.322;2023-11-21T18:34:57;7.00;99.90
11818;DHT22;5966;52.402;5.322;2023-11-21T18:37:26;6.90;99.90
11818;DHT22;5966;52.402;5.322;2023-11-21T18:39:54;6.90;99.90
11818;DHT22;5966;52.402;5.322;2023-11-21T18:42:22;6.90;99.90
11818;DHT22;5966;52.402;5.322;2023-11-21T18:44:52;6.90;99.90
11818;DHT22;5966;52.402;5.322;2023-11-21T18:47:25;6.90;99.90
11818;DHT22;5966;52.402;5.322;2023-11-21T18:49:55;6.90;99.90
11818;DHT22;5966;52.402;5.322;2023-11-21T18:52:24;6.90;99.90
11818;DHT22;5966;52.402;5.322;2023-11-21T18:54:55;6.90;99.90
11818;DHT22;5966;52.402;5.322;2023-11-21T18:57:26;6.90;99.90
11818;DHT22;5966;52.402;5.322;2023-11-21T18:59:56;6.80;99.90
11818;DHT22;5966;52.402;5.322;2023-11-21T19:02:25;6.80;99.90
11818;DHT22;5966;52.402;5.322;2023-11-21T19:04:54;6.70;99.90
11818;DHT22;5966;52.402;5.322;2023-11-21T19:07:22;6.70;99.90
11818;DHT22;5966;52.402;5.322;2023-11-21T19:09:53;6.70;99.90
11818;DHT22;5966;52.402;5.322;2023-11-21T19:12:22;6.70;99.90
11818;DHT22;5966;52.402;5.322;2023-11-21T19:14:50;6.60;99.90
11818;DHT22;5966;52.402;5.322;2023-11-21T19:17:20;6.60;99.90
11818;DHT22;5966;52.402;5.322;2023-11-21T19:19:49;6.60;99.90
11818;DHT22;5966;52.402;5.322;2023-11-21T19:22:18;6.60;99.90